Time;durP1;ratioP1;P1;durP2;ratioP2;P2;SDS_P1;SDS_P2;PMS_P1;PMS_P2;Temp;Humidity;BMP_temperature;BMP_pressure;BME280_temperature;BME280_humidity;BME280_pressure;Samples;Min_cycle;Max_cycle;Signal;HPM_P1;HPM_P2
2024/02/19 00:02:19;;;;;;;0.80;0.70;;;8.00;99.90;;;;;;5031899;28;20213;-72
2024/02/19 00:04:47;;;;;;;0.90;0.80;;;8.00;99.90;;;;;;5031705;28;20235;-72
2024/02/19 00:07:17;;;;;;;1.30;0.90;;;8.10;99.90;;;;;;5031668;28;20618;-72
2024/02/19 00:09:44;;;;;;;0.82;0.70;;;8.10;99.90;;;;;;5031526;28;20203;-72
2024/02/19 00:12:11;;;;;;;0.80;0.70;;;8.10;99.90;;;;;;5031461;28;20202;-72
2024/02/19 00:14:37;;;;;;;0.80;0.70;;;8.10;99.90;;;;;;5031763;28;20254;-72
2024/02/19 00:17:04;;;;;;;0.80;0.70;;;8.10;99.90;;;;;;5031622;28;20210;-72
2024/02/19 00:19:31;;;;;;;0.80;0.60;;;8.10;99.90;;;;;;5031829;28;20573;-72
2024/02/19 00:21:59;;;;;;;0.80;0.70;;;8.20;99.90;;;;;;5031358;28;20246;-72
2024/02/19 00:24:26;;;;;;;0.80;0.70;;;8.20;99.90;;;;;;5031732;28;20236;-72
2024/02/19 00:26:53;;;;;;;0.80;0.70;;;8.20;99.90;;;;;;5031533;28;20207;-72
2024/02/19 00:29:19;;;;;;;0.70;0.60;;;8.20;99.90;;;;;;5031623;28;20612;-72
2024/02/19 00:31:47;;;;;;;4.05;0.82;;;8.20;99.90;;;;;;5031957;28;20219;-72
2024/02/19 00:34:14;;;;;;;0.80;0.73;;;8.20;99.90;;;;;;5031131;28;20246;-72
2024/02/19 00:36:42;;;;;;;0.70;0.70;;;8.20;99.90;;;;;;5031458;28;20260;-72
2024/02/19 00:39:10;;;;;;;0.70;0.60;;;8.30;99.90;;;;;;5030882;28;20271;-72
2024/02/19 00:41:37;;;;;;;0.80;0.70;;;8.30;99.90;;;;;;5031255;28;20211;-72
2024/02/19 00:44:04;;;;;;;0.80;0.70;;;8.30;99.90;;;;;;5031008;28;20231;-72
2024/02/19 00:46:31;;;;;;;0.80;0.70;;;8.30;99.90;;;;;;5031209;28;20208;-72
2024/02/19 00:48:57;;;;;;;0.80;0.70;;;8.30;99.90;;;;;;5030894;28;20340;-72
2024/02/19 00:51:24;;;;;;;0.80;0.70;;;8.30;99.90;;;;;;5031185;28;20638;-72
2024/02/19 00:53:51;;;;;;;0.80;0.80;;;8.20;99.90;;;;;;5030951;28;20230;-72
2024/02/19 00:56:19;;;;;;;1.85;1.05;;;8.30;99.90;;;;;;5031020;28;20206;-72
2024/02/19 00:58:45;;;;;;;0.98;0.65;;;8.30;99.90;;;;;;5030807;28;20233;-72
2024/02/19 01:01:12;;;;;;;0.70;0.60;;;8.30;99.90;;;;;;5030849;28;20212;-72
2024/02/19 01:03:39;;;;;;;0.70;0.60;;;8.30;99.90;;;;;;5030758;28;20732;-72
2024/02/19 01:06:06;;;;;;;0.80;0.70;;;8.30;99.90;;;;;;5031825;28;20577;-72
2024/02/19 01:08:33;;;;;;;1.15;0.80;;;8.20;99.90;;;;;;5035184;28;20208;-72
2024/02/19 01:11:00;;;;;;;0.77;0.70;;;8.20;99.90;;;;;;5035136;28;20230;-72
2024/02/19 01:13:28;;;;;;;0.80;0.70;;;8.20;99.90;;;;;;5034873;28;20231;-72
2024/02/19 01:15:54;;;;;;;0.70;0.60;;;8.20;99.90;;;;;;5035224;28;20207;-72
2024/02/19 01:18:22;;;;;;;0.70;0.60;;;8.20;99.90;;;;;;5034814;28;20237;-72
2024/02/19 01:20:48;;;;;;;0.80;0.70;;;8.10;99.90;;;;;;5034882;28;20242;-72
2024/02/19 01:23:16;;;;;;;1.23;0.73;;;8.20;99.90;;;;;;5034743;28;20227;-72
2024/02/19 01:25:43;;;;;;;0.85;0.75;;;8.20;99.90;;;;;;5034709;28;20211;-72
2024/02/19 01:28:10;;;;;;;0.70;0.60;;;8.20;99.90;;;;;;5034454;28;20205;-72
2024/02/19 01:30:38;;;;;;;0.80;0.70;;;8.20;99.90;;;;;;5034789;28;20240;-72
2024/02/19 01:33:05;;;;;;;0.77;0.70;;;8.20;99.90;;;;;;5034496;28;20979;-72
2024/02/19 01:35:32;;;;;;;0.70;0.60;;;8.20;99.90;;;;;;5034596;28;20218;-72
2024/02/19 01:37:59;;;;;;;0.70;0.60;;;8.30;99.90;;;;;;5034209;28;20293;-72
2024/02/19 01:40:26;;;;;;;0.80;0.80;;;8.20;99.90;;;;;;5034644;28;20612;-72
2024/02/19 01:43:02;;;;;;;0.73;0.65;;;8.20;99.90;;;;;;5034233;28;20225;-72
2024/02/19 01:45:28;;;;;;;0.80;0.70;;;8.20;99.90;;;;;;5034637;28;20241;-72
2024/02/19 01:47:58;;;;;;;0.82;0.70;;;8.20;99.90;;;;;;5034173;28;20218;-72
2024/02/19 01:50:28;;;;;;;0.70;0.60;;;8.20;99.90;;;;;;5034537;28;20203;-72
2024/02/19 01:52:57;;;;;;;1.80;0.80;;;8.30;99.90;;;;;;5034077;28;20656;-72
2024/02/19 01:55:24;;;;;;;0.80;0.60;;;8.30;99.90;;;;;;5034630;28;20610;-72
2024/02/19 01:57:51;;;;;;;0.70;0.60;;;8.30;99.90;;;;;;5034024;28;20569;-72
2024/02/19 02:00:19;;;;;;;0.95;0.80;;;8.30;99.90;;;;;;5034309;28;20244;-72
2024/02/19 02:02:46;;;;;;;0.70;0.60;;;8.30;99.90;;;;;;5034017;28;20208;-72
2024/02/19 02:05:15;;;;;;;0.70;0.60;;;8.20;99.90;;;;;;5033861;28;20220;-72
2024/02/19 02:07:42;;;;;;;0.90;0.70;;;8.20;99.90;;;;;;5033978;28;20309;-72
2024/02/19 02:10:09;;;;;;;0.70;0.60;;;8.20;99.90;;;;;;5033851;28;20243;-72
2024/02/19 02:12:36;;;;;;;1.17;0.73;;;8.20;99.90;;;;;;5033881;28;20207;-72
2024/02/19 02:15:03;;;;;;;0.70;0.70;;;8.20;99.90;;;;;;5033794;28;20212;-72
2024/02/19 02:17:29;;;;;;;0.88;0.70;;;8.20;99.90;;;;;;5033465;28;20207;-72
2024/02/19 02:19:56;;;;;;;0.70;0.60;;;8.10;99.90;;;;;;5033610;28;20236;-72
2024/02/19 02:22:24;;;;;;;0.70;0.60;;;8.20;99.90;;;;;;5033825;28;20218;-72
2024/02/19 02:24:51;;;;;;;0.98;0.80;;;8.20;99.90;;;;;;5034024;28;20584;-72
2024/02/19 02:27:19;;;;;;;0.70;0.60;;;8.20;99.90;;;;;;5033665;28;20264;-72
2024/02/19 02:29:46;;;;;;;0.70;0.60;;;8.20;99.90;;;;;;5033531;28;20261;-72
2024/02/19 02:32:13;;;;;;;0.70;0.60;;;8.10;99.90;;;;;;5033662;28;20216;-72
2024/02/19 02:34:39;;;;;;;0.80;0.60;;;8.10;99.90;;;;;;5033526;28;20227;-72
2024/02/19 02:37:06;;;;;;;0.80;0.70;;;8.10;99.90;;;;;;5033399;28;20588;-72
2024/02/19 02:39:33;;;;;;;0.70;0.70;;;8.10;99.90;;;;;;5033370;28;20224;-72
2024/02/19 02:42:00;;;;;;;0.80;0.70;;;8.20;99.90;;;;;;5033162;28;20207;-72
2024/02/19 02:44:28;;;;;;;0.90;0.70;;;8.10;99.90;;;;;;5033688;28;20594;-72
2024/02/19 02:46:54;;;;;;;0.70;0.70;;;8.20;99.90;;;;;;5033429;28;20247;-72
2024/02/19 02:49:21;;;;;;;0.70;0.70;;;8.20;99.90;;;;;;5033357;28;20202;-72
2024/02/19 02:51:48;;;;;;;1.20;0.90;;;8.20;99.90;;;;;;5033360;28;20208;-72
2024/02/19 02:54:14;;;;;;;0.93;0.70;;;8.20;99.90;;;;;;5032925;28;20247;-72
2024/02/19 02:56:41;;;;;;;0.82;0.73;;;8.20;99.90;;;;;;5033154;28;20235;-72
2024/02/19 02:59:08;;;;;;;0.95;0.77;;;8.20;99.90;;;;;;5032617;28;20233;-72
2024/02/19 03:01:36;;;;;;;0.90;0.70;;;8.20;99.90;;;;;;5033298;28;20212;-74
2024/02/19 03:04:03;;;;;;;0.70;0.60;;;8.20;99.90;;;;;;5032715;28;20263;-72
2024/02/19 03:06:30;;;;;;;1.88;0.80;;;8.20;99.90;;;;;;5033085;28;20204;-72
2024/02/19 03:08:57;;;;;;;0.70;0.60;;;8.10;99.90;;;;;;5032319;28;20203;-72
2024/02/19 03:11:23;;;;;;;0.80;0.70;;;8.10;99.90;;;;;;5033057;28;20210;-72
2024/02/19 03:13:50;;;;;;;1.20;0.77;;;8.10;99.90;;;;;;5032520;28;20232;-72
2024/02/19 03:16:17;;;;;;;0.80;0.70;;;8.10;99.90;;;;;;5032836;28;20214;-72
2024/02/19 03:18:46;;;;;;;0.90;0.80;;;8.00;99.90;;;;;;5032308;28;20692;-72
2024/02/19 03:21:15;;;;;;;0.90;0.80;;;8.10;99.90;;;;;;5032355;28;20206;-72
2024/02/19 03:23:49;;;;;;;1.00;0.90;;;8.10;99.90;;;;;;5032348;28;20278;-73
2024/02/19 03:26:16;;;;;;;1.50;0.80;;;8.10;99.90;;;;;;5032377;28;20328;-72
2024/02/19 03:28:43;;;;;;;1.13;0.82;;;8.10;99.90;;;;;;5031458;28;20228;-72
2024/02/19 03:31:10;;;;;;;0.90;0.80;;;8.10;99.90;;;;;;5032152;28;20225;-72
2024/02/19 03:33:38;;;;;;;1.75;1.20;;;8.10;99.90;;;;;;5032098;28;20232;-72
2024/02/19 03:36:09;;;;;;;0.98;0.88;;;8.10;99.90;;;;;;5032078;28;20207;-72
2024/02/19 03:38:36;;;;;;;1.13;0.80;;;8.10;99.90;;;;;;5032157;28;20227;-72
2024/02/19 03:41:04;;;;;;;1.17;0.95;;;8.20;99.90;;;;;;5031975;28;20242;-72
2024/02/19 03:43:31;;;;;;;0.90;0.90;;;8.10;99.90;;;;;;5032089;28;20613;-72
2024/02/19 03:45:57;;;;;;;1.23;1.10;;;8.20;99.90;;;;;;5032087;28;20231;-72
2024/02/19 03:48:24;;;;;;;1.40;1.08;;;8.20;99.90;;;;;;5032119;28;20198;-72
2024/02/19 03:50:51;;;;;;;1.30;1.08;;;8.20;99.90;;;;;;5031920;28;20567;-72
2024/02/19 03:53:19;;;;;;;0.90;0.80;;;8.20;99.90;;;;;;5031616;28;20592;-72
2024/02/19 03:55:46;;;;;;;1.98;1.17;;;8.10;99.90;;;;;;5031893;28;20213;-72
2024/02/19 03:58:12;;;;;;;1.10;1.00;;;8.20;99.90;;;;;;5031795;28;20226;-72
2024/02/19 04:00:39;;;;;;;1.08;0.98;;;8.10;99.90;;;;;;5031833;28;20585;-72
2024/02/19 04:03:06;;;;;;;1.08;0.98;;;8.20;99.90;;;;;;5031458;28;20598;-72
2024/02/19 04:05:33;;;;;;;0.80;0.80;;;8.10;99.90;;;;;;5031889;28;20217;-72
2024/02/19 04:07:59;;;;;;;1.00;0.90;;;8.10;99.90;;;;;;5031460;28;20215;-72
2024/02/19 04:10:27;;;;;;;1.17;1.08;;;8.20;99.90;;;;;;5031864;28;20203;-72
2024/02/19 04:12:54;;;;;;;2.08;1.00;;;8.10;99.90;;;;;;5031476;28;20234;-72
2024/02/19 04:15:21;;;;;;;2.47;0.80;;;8.10;99.90;;;;;;5031790;28;20208;-72
2024/02/19 04:17:48;;;;;;;0.90;0.80;;;8.20;99.90;;;;;;5029512;28;20254;-72
2024/02/19 04:20:15;;;;;;;1.10;1.00;;;8.20;99.90;;;;;;5031392;28;20598;-72
2024/02/19 04:22:41;;;;;;;0.80;0.80;;;8.20;99.90;;;;;;5031443;28;20628;-72
2024/02/19 04:25:09;;;;;;;1.13;1.02;;;8.20;99.90;;;;;;5009853;28;20227;-72
2024/02/19 04:27:37;;;;;;;1.10;1.00;;;8.20;99.90;;;;;;5003988;28;20205;-72
2024/02/19 04:30:04;;;;;;;1.40;0.95;;;8.20;99.90;;;;;;5006837;28;20566;-73
2024/02/19 04:32:31;;;;;;;1.10;1.00;;;8.20;99.90;;;;;;5006576;28;20215;-73
2024/02/19 04:34:58;;;;;;;1.55;1.00;;;8.20;99.90;;;;;;5007076;28;20218;-72
2024/02/19 04:37:25;;;;;;;2.50;0.95;;;8.20;99.90;;;;;;5007676;28;20201;-73
2024/02/19 04:39:51;;;;;;;1.00;0.90;;;8.20;99.90;;;;;;5005430;28;20256;-73
2024/02/19 04:42:18;;;;;;;1.00;0.90;;;8.20;99.90;;;;;;5008538;28;20216;-73
2024/02/19 04:44:47;;;;;;;1.02;0.80;;;8.20;99.90;;;;;;5004707;28;20224;-73
2024/02/19 04:47:13;;;;;;;1.00;0.90;;;8.20;99.90;;;;;;5008591;28;20723;-72
2024/02/19 04:49:40;;;;;;;1.30;1.20;;;8.30;99.90;;;;;;5004978;28;20199;-73
2024/02/19 04:52:07;;;;;;;1.83;1.40;;;8.30;99.90;;;;;;5009187;28;20205;-73
2024/02/19 04:54:34;;;;;;;3.63;1.50;;;8.20;99.90;;;;;;5011265;28;20219;-73
2024/02/19 04:57:00;;;;;;;4.03;1.33;;;8.20;99.90;;;;;;5010809;28;20575;-73
2024/02/19 04:59:29;;;;;;;1.60;1.23;;;8.30;99.90;;;;;;5008244;28;20223;-73
2024/02/19 05:01:59;;;;;;;2.97;1.50;;;8.30;99.90;;;;;;5010563;28;20735;-73
2024/02/19 05:04:26;;;;;;;1.35;1.25;;;8.30;99.90;;;;;;5010720;28;20248;-74
2024/02/19 05:06:54;;;;;;;2.35;1.70;;;8.20;99.90;;;;;;5010760;28;20201;-74
2024/02/19 05:09:21;;;;;;;3.13;1.30;;;8.20;99.90;;;;;;5010940;28;20622;-74
2024/02/19 05:11:48;;;;;;;1.58;1.48;;;8.20;99.90;;;;;;5009891;28;20207;-74
2024/02/19 05:14:14;;;;;;;2.67;1.38;;;8.10;99.90;;;;;;5012075;28;20230;-74
2024/02/19 05:16:41;;;;;;;1.95;1.33;;;8.10;99.90;;;;;;5010883;28;20205;-74
2024/02/19 05:19:10;;;;;;;3.53;1.88;;;8.10;99.90;;;;;;5010201;28;20240;-71
2024/02/19 05:21:41;;;;;;;2.45;1.73;;;8.10;99.90;;;;;;5010512;28;20686;-72
2024/02/19 05:24:09;;;;;;;3.50;2.20;;;8.10;99.90;;;;;;5008925;28;20251;-72
2024/02/19 05:26:36;;;;;;;2.22;1.80;;;8.10;99.90;;;;;;5010768;28;20202;-71
2024/02/19 05:29:04;;;;;;;3.05;2.38;;;8.10;99.90;;;;;;5010966;28;20588;-72
2024/02/19 05:31:34;;;;;;;2.72;2.22;;;8.10;99.90;;;;;;5010367;28;20239;-72
2024/02/19 05:34:03;;;;;;;3.00;2.00;;;8.00;99.90;;;;;;5009685;28;20462;-72
2024/02/19 05:36:31;;;;;;;2.47;1.60;;;8.00;99.90;;;;;;5010235;28;20244;-72
2024/02/19 05:38:58;;;;;;;3.03;2.15;;;8.00;99.90;;;;;;5010626;28;20219;-71
2024/02/19 05:41:25;;;;;;;2.55;1.90;;;8.00;99.90;;;;;;5011102;28;20211;-72
2024/02/19 05:43:52;;;;;;;3.88;2.40;;;8.10;99.90;;;;;;5010748;28;20226;-72
2024/02/19 05:46:19;;;;;;;5.93;1.85;;;8.10;99.90;;;;;;5010866;28;20207;-72
2024/02/19 05:48:46;;;;;;;2.65;1.92;;;8.10;99.90;;;;;;5010745;28;20680;-72
2024/02/19 05:51:13;;;;;;;2.10;1.95;;;8.10;99.90;;;;;;5010720;28;20211;-72
2024/02/19 05:53:41;;;;;;;5.25;2.10;;;8.10;99.90;;;;;;5013830;28;20253;-72
2024/02/19 05:56:09;;;;;;;6.40;2.10;;;8.10;99.90;;;;;;5014501;28;20668;-71
2024/02/19 05:58:40;;;;;;;3.90;2.40;;;8.10;99.90;;;;;;5014431;28;20236;-72
2024/02/19 06:01:07;;;;;;;3.35;2.75;;;8.10;99.90;;;;;;5014104;28;20669;-71
2024/02/19 06:03:35;;;;;;;2.90;2.10;;;8.10;99.90;;;;;;5013947;28;20729;-72
2024/02/19 06:06:02;;;;;;;2.42;2.03;;;8.10;99.90;;;;;;5014069;28;20680;-71
2024/02/19 06:08:29;;;;;;;5.45;2.35;;;8.10;99.90;;;;;;5014150;28;20260;-72
2024/02/19 06:10:59;;;;;;;2.72;1.85;;;8.20;99.90;;;;;;5014143;28;20579;-72
2024/02/19 06:13:25;;;;;;;5.35;2.40;;;8.20;99.90;;;;;;5014063;28;20228;-72
2024/02/19 06:15:52;;;;;;;2.60;2.08;;;8.20;99.90;;;;;;5014092;28;20207;-72
2024/02/19 06:18:19;;;;;;;2.55;2.08;;;8.20;99.90;;;;;;5013696;28;20722;-72
2024/02/19 06:20:47;;;;;;;3.20;2.28;;;8.20;99.90;;;;;;5013897;28;20593;-72
2024/02/19 06:23:14;;;;;;;3.15;2.45;;;8.20;99.90;;;;;;5013519;28;20323;-72
2024/02/19 06:25:40;;;;;;;4.07;2.38;;;8.20;99.90;;;;;;5013833;28;20222;-72
2024/02/19 06:28:08;;;;;;;1.80;1.70;;;8.20;99.90;;;;;;5013569;28;20727;-72
2024/02/19 06:30:36;;;;;;;2.95;1.85;;;8.20;99.90;;;;;;5013671;28;20211;-72
2024/02/19 06:33:03;;;;;;;6.10;2.60;;;8.30;99.90;;;;;;5013382;28;20262;-72
2024/02/19 06:35:29;;;;;;;4.25;1.80;;;8.30;99.90;;;;;;5013867;28;20266;-72
2024/02/19 06:37:56;;;;;;;2.30;2.05;;;8.30;99.90;;;;;;5013397;28;20223;-72
2024/02/19 06:40:23;;;;;;;5.18;2.38;;;8.30;99.90;;;;;;5013609;28;20243;-72
2024/02/19 06:42:50;;;;;;;3.15;1.98;;;8.30;99.90;;;;;;5013533;28;20211;-72
2024/02/19 06:45:19;;;;;;;3.28;2.53;;;8.20;99.90;;;;;;5013271;28;20626;-71
2024/02/19 06:47:45;;;;;;;2.95;1.85;;;8.20;99.90;;;;;;5013436;28;20211;-71
2024/02/19 06:50:12;;;;;;;2.83;2.33;;;8.20;99.90;;;;;;5013389;28;20676;-71
2024/02/19 06:52:43;;;;;;;3.00;2.60;;;8.20;99.90;;;;;;5013249;28;20675;-71
2024/02/19 06:55:10;;;;;;;3.78;2.15;;;8.20;99.90;;;;;;5013431;28;20294;-73
2024/02/19 06:57:36;;;;;;;2.03;1.83;;;8.20;99.90;;;;;;5013221;28;20214;-73
2024/02/19 07:00:03;;;;;;;1.63;1.52;;;8.10;99.90;;;;;;5013024;28;20235;-73
2024/02/19 07:02:31;;;;;;;1.60;1.50;;;8.20;99.90;;;;;;5013192;28;20218;-73
2024/02/19 07:04:58;;;;;;;4.20;2.13;;;8.20;99.90;;;;;;5011878;28;20297;-73
2024/02/19 07:07:25;;;;;;;3.05;2.70;;;8.10;99.90;;;;;;5013148;28;20245;-71
2024/02/19 07:09:52;;;;;;;3.60;1.90;;;8.10;99.90;;;;;;5013094;28;20229;-71
2024/02/19 07:12:19;;;;;;;5.43;1.85;;;8.10;99.90;;;;;;5012871;28;20225;-71
2024/02/19 07:14:46;;;;;;;4.97;2.28;;;8.10;99.90;;;;;;5013158;28;20716;-71
2024/02/19 07:17:12;;;;;;;3.53;1.65;;;8.10;99.90;;;;;;5012782;28;20207;-71
2024/02/19 07:19:40;;;;;;;2.65;1.70;;;8.10;99.90;;;;;;5012710;28;20222;-71
2024/02/19 07:22:07;;;;;;;2.58;1.65;;;8.00;99.90;;;;;;5012593;28;20207;-71
2024/02/19 07:24:36;;;;;;;2.75;2.00;;;8.00;99.90;;;;;;5013022;28;20234;-71
2024/02/19 07:27:03;;;;;;;1.95;1.55;;;8.00;99.90;;;;;;5012654;28;20351;-71
2024/02/19 07:29:30;;;;;;;2.47;1.60;;;8.00;99.90;;;;;;5012661;28;20648;-71
2024/02/19 07:31:56;;;;;;;2.25;1.33;;;8.10;99.90;;;;;;5012754;28;20214;-71
2024/02/19 07:34:24;;;;;;;2.10;1.45;;;8.10;99.90;;;;;;5012441;28;20227;-71
2024/02/19 07:36:52;;;;;;;1.30;1.20;;;8.10;99.90;;;;;;5012628;28;20258;-71
2024/02/19 07:39:20;;;;;;;2.17;1.98;;;8.10;99.90;;;;;;5012181;28;20214;-71
2024/02/19 07:41:47;;;;;;;2.65;1.48;;;8.10;99.90;;;;;;5012574;28;20206;-71
2024/02/19 07:44:13;;;;;;;1.10;0.90;;;8.10;99.90;;;;;;5012193;28;20725;-71
2024/02/19 07:46:40;;;;;;;5.90;1.42;;;8.10;99.90;;;;;;5012508;28;20684;-71
2024/02/19 07:49:07;;;;;;;4.82;1.65;;;8.10;99.90;;;;;;5011986;28;20211;-71
2024/02/19 07:51:34;;;;;;;1.20;0.95;;;8.20;99.90;;;;;;5012346;28;20206;-72
2024/02/19 07:54:02;;;;;;;3.28;1.45;;;8.20;99.90;;;;;;5012088;28;20240;-71
2024/02/19 07:56:28;;;;;;;1.65;1.33;;;8.30;99.90;;;;;;5012176;28;20206;-71
2024/02/19 07:58:55;;;;;;;3.55;1.52;;;8.30;99.90;;;;;;5011949;28;20222;-71
2024/02/19 08:01:22;;;;;;;1.70;1.30;;;8.30;99.90;;;;;;5012201;28;20230;-72
2024/02/19 08:03:49;;;;;;;2.88;1.65;;;8.40;99.90;;;;;;5011882;28;20245;-71
2024/02/19 08:06:15;;;;;;;2.22;1.60;;;8.40;99.90;;;;;;5011891;28;20206;-71
2024/02/19 08:08:42;;;;;;;1.80;1.10;;;8.40;99.90;;;;;;5011926;28;20210;-72
2024/02/19 08:11:10;;;;;;;1.00;0.90;;;8.50;99.90;;;;;;5011908;28;20211;-71
2024/02/19 08:13:37;;;;;;;2.47;1.67;;;8.60;99.90;;;;;;5011987;28;20226;-71
2024/02/19 08:16:04;;;;;;;1.23;1.10;;;8.60;99.90;;;;;;5011903;28;20775;-72
2024/02/19 08:18:31;;;;;;;1.00;0.90;;;8.60;99.90;;;;;;5011910;28;20246;-72
2024/02/19 08:20:57;;;;;;;1.70;1.30;;;8.70;99.90;;;;;;5011785;28;20235;-71
2024/02/19 08:23:24;;;;;;;1.20;1.00;;;8.60;99.90;;;;;;5011575;28;20235;-71
2024/02/19 08:25:51;;;;;;;1.40;1.30;;;8.60;99.90;;;;;;5011801;28;20222;-71
2024/02/19 08:28:19;;;;;;;2.28;1.23;;;8.70;99.90;;;;;;5011510;28;20215;-71
2024/02/19 08:30:46;;;;;;;3.13;1.13;;;8.70;99.90;;;;;;5011648;28;20259;-72
2024/02/19 08:33:12;;;;;;;1.20;0.90;;;8.70;99.90;;;;;;5011467;28;20461;-71
2024/02/19 08:35:39;;;;;;;3.72;1.00;;;8.60;99.90;;;;;;5011835;28;20217;-72
2024/02/19 08:38:06;;;;;;;5.10;1.50;;;8.70;99.90;;;;;;5011503;28;20686;-72
2024/02/19 08:40:33;;;;;;;1.65;1.42;;;8.70;99.90;;;;;;5011541;28;20230;-71
2024/02/19 08:42:59;;;;;;;1.90;1.08;;;8.80;99.90;;;;;;5011492;28;20233;-71
2024/02/19 08:45:28;;;;;;;1.50;1.25;;;8.70;99.90;;;;;;5011496;28;20208;-72
2024/02/19 08:47:54;;;;;;;2.05;1.23;;;8.80;99.90;;;;;;5011254;28;20684;-71
2024/02/19 08:50:21;;;;;;;3.28;1.20;;;8.80;99.90;;;;;;5011302;28;20219;-71
2024/02/19 08:52:48;;;;;;;1.27;1.00;;;8.80;99.90;;;;;;5011303;28;20216;-71
2024/02/19 08:55:14;;;;;;;3.00;1.30;;;8.80;99.90;;;;;;5011669;28;20220;-71
2024/02/19 08:57:41;;;;;;;1.00;0.90;;;8.80;99.90;;;;;;5011302;28;20208;-71
2024/02/19 09:00:11;;;;;;;1.70;1.05;;;8.80;99.90;;;;;;5011183;28;20227;-71
2024/02/19 09:02:40;;;;;;;1.30;0.80;;;8.80;99.90;;;;;;5011142;28;20554;-72
2024/02/19 09:05:07;;;;;;;0.90;0.80;;;8.80;99.90;;;;;;5011340;28;20671;-71
2024/02/19 09:07:34;;;;;;;2.90;1.10;;;8.80;99.90;;;;;;5011106;28;20208;-71
2024/02/19 09:10:00;;;;;;;3.47;1.15;;;8.80;99.90;;;;;;5011325;28;20235;-71
2024/02/19 09:12:27;;;;;;;1.25;1.05;;;8.80;99.90;;;;;;5011154;28;20214;-71
2024/02/19 09:14:55;;;;;;;1.00;0.90;;;8.80;99.90;;;;;;5011184;28;20237;-71
2024/02/19 09:17:22;;;;;;;1.20;1.08;;;8.80;99.90;;;;;;5011423;28;20585;-71
2024/02/19 09:19:50;;;;;;;0.95;0.85;;;8.90;99.90;;;;;;5011076;28;20216;-71
2024/02/19 09:22:17;;;;;;;1.00;0.90;;;8.80;99.90;;;;;;5011016;28;20231;-71
2024/02/19 09:24:47;;;;;;;1.00;0.90;;;8.90;99.90;;;;;;5011233;28;20234;-71
2024/02/19 09:27:14;;;;;;;3.55;1.42;;;9.00;99.90;;;;;;5012017;28;20709;-71
2024/02/19 09:29:41;;;;;;;1.15;0.90;;;9.10;99.90;;;;;;5014847;28;20213;-72
2024/02/19 09:32:08;;;;;;;4.32;0.93;;;9.20;99.90;;;;;;5014896;28;20210;-71
2024/02/19 09:34:35;;;;;;;1.65;0.90;;;9.30;99.90;;;;;;5014882;28;20229;-71
2024/02/19 09:37:03;;;;;;;1.33;0.90;;;9.40;99.90;;;;;;5014879;28;20209;-71
2024/02/19 09:39:30;;;;;;;1.05;0.85;;;9.30;99.90;;;;;;5014655;28;20563;-72
2024/02/19 09:41:57;;;;;;;1.50;1.10;;;9.40;99.90;;;;;;5014719;28;20779;-72
2024/02/19 09:44:24;;;;;;;1.48;0.90;;;9.50;99.90;;;;;;5014526;28;20643;-72
2024/02/19 09:46:55;;;;;;;0.90;0.80;;;9.60;99.90;;;;;;5014620;28;20240;-72
2024/02/19 09:49:26;;;;;;;1.27;1.08;;;9.50;99.90;;;;;;5014465;28;20237;-71
2024/02/19 09:51:57;;;;;;;3.65;1.50;;;9.40;99.90;;;;;;5014636;28;20208;-71
2024/02/19 09:54:28;;;;;;;1.40;1.00;;;9.30;99.90;;;;;;5014414;28;20232;-71
2024/02/19 09:56:56;;;;;;;0.93;0.82;;;9.30;99.90;;;;;;5014619;28;20214;-71
2024/02/19 09:59:23;;;;;;;1.63;1.10;;;9.30;99.90;;;;;;5014226;28;20213;-71
2024/02/19 10:01:50;;;;;;;2.85;1.00;;;9.30;99.90;;;;;;5014390;28;20233;-73
2024/02/19 10:04:20;;;;;;;1.35;0.98;;;9.30;99.90;;;;;;5014163;28;20232;-71
2024/02/19 10:06:47;;;;;;;1.00;0.90;;;9.30;99.90;;;;;;5014442;28;20206;-71
2024/02/19 10:09:14;;;;;;;1.30;1.20;;;9.30;99.90;;;;;;5014081;28;20209;-72
2024/02/19 10:11:42;;;;;;;1.20;1.10;;;9.30;99.90;;;;;;5014275;28;20336;-71
2024/02/19 10:14:10;;;;;;;2.88;1.25;;;9.30;99.90;;;;;;5013962;28;20233;-71
2024/02/19 10:16:37;;;;;;;1.10;1.00;;;9.40;99.90;;;;;;5014084;28;20211;-71
2024/02/19 10:19:04;;;;;;;1.15;1.05;;;9.40;99.90;;;;;;5013991;28;20305;-71
2024/02/19 10:21:31;;;;;;;1.40;1.20;;;9.30;99.90;;;;;;5014052;28;20232;-72
2024/02/19 10:23:57;;;;;;;4.35;1.30;;;9.30;99.90;;;;;;5014099;28;20240;-72
2024/02/19 10:26:24;;;;;;;1.05;0.90;;;9.30;99.90;;;;;;5013920;28;20216;-72
2024/02/19 10:28:54;;;;;;;3.20;1.20;;;9.40;99.90;;;;;;5013797;28;20212;-72
2024/02/19 10:31:21;;;;;;;2.70;1.00;;;9.40;99.90;;;;;;5013763;28;20230;-72
2024/02/19 10:33:48;;;;;;;1.02;0.93;;;9.30;99.90;;;;;;5013798;28;20237;-72
2024/02/19 10:36:15;;;;;;;2.58;1.48;;;9.30;99.90;;;;;;5013797;28;20234;-72
2024/02/19 10:38:42;;;;;;;4.05;1.05;;;9.30;99.90;;;;;;5013214;28;20220;-72
2024/02/19 10:41:09;;;;;;;1.63;1.10;;;9.30;99.90;;;;;;5013663;28;20224;-72
2024/02/19 10:43:37;;;;;;;2.20;1.20;;;9.40;99.90;;;;;;5013658;28;20284;-72
2024/02/19 10:46:05;;;;;;;1.67;1.10;;;9.40;99.90;;;;;;5013567;28;20256;-72
2024/02/19 10:48:32;;;;;;;2.15;1.20;;;9.40;99.90;;;;;;5013312;28;20624;-72
2024/02/19 10:51:03;;;;;;;4.75;1.35;;;9.40;99.90;;;;;;5013449;28;20586;-72
2024/02/19 10:53:30;;;;;;;1.33;1.20;;;9.50;99.90;;;;;;5013268;28;20231;-72
2024/02/19 10:56:10;;;;;;;1.45;0.93;;;9.60;99.90;;;;;;5013403;28;20214;-72
2024/02/19 10:58:36;;;;;;;1.00;0.90;;;9.60;99.90;;;;;;5013149;28;20219;-72
2024/02/19 11:01:06;;;;;;;1.20;1.10;;;9.60;99.90;;;;;;5013189;28;20598;-72
2024/02/19 11:03:44;;;;;;;1.00;0.90;;;9.60;99.90;;;;;;5013046;28;20236;-72
2024/02/19 11:06:13;;;;;;;3.55;1.00;;;9.70;99.90;;;;;;5013229;28;20215;-72
2024/02/19 11:08:47;;;;;;;2.70;2.00;;;9.70;99.90;;;;;;5012889;28;20210;-72
2024/02/19 11:11:14;;;;;;;1.90;1.00;;;9.80;99.90;;;;;;5013104;28;20217;-72
2024/02/19 11:13:41;;;;;;;1.10;0.90;;;9.90;99.90;;;;;;5013146;28;20228;-72
2024/02/19 11:16:17;;;;;;;2.10;1.00;;;9.90;99.90;;;;;;5013135;28;20207;-72
2024/02/19 11:18:44;;;;;;;2.95;1.30;;;10.00;99.90;;;;;;5013074;28;20216;-72
2024/02/19 11:21:11;;;;;;;2.60;1.38;;;10.10;99.90;;;;;;5012856;28;20232;-72
2024/02/19 11:23:38;;;;;;;1.23;1.13;;;10.30;99.90;;;;;;5012883;28;20273;-72
2024/02/19 11:26:05;;;;;;;1.23;1.10;;;10.50;99.90;;;;;;5012936;28;20212;-72
2024/02/19 11:28:33;;;;;;;3.00;1.23;;;10.70;99.90;;;;;;5012808;28;20405;-72
2024/02/19 11:31:01;;;;;;;2.90;1.17;;;10.90;99.90;;;;;;5012740;28;20207;-72
2024/02/19 11:33:29;;;;;;;1.02;0.80;;;11.00;99.90;;;;;;5012842;28;20253;-72
2024/02/19 11:35:57;;;;;;;1.25;0.90;;;11.00;99.90;;;;;;5012762;28;20308;-72
2024/02/19 11:38:25;;;;;;;1.35;1.20;;;11.00;99.90;;;;;;5012673;28;20211;-72
2024/02/19 11:40:52;;;;;;;1.33;0.80;;;11.10;99.90;;;;;;5012456;28;20568;-72
2024/02/19 11:43:20;;;;;;;1.58;0.90;;;11.30;99.90;;;;;;5012469;28;20325;-72
2024/02/19 11:45:47;;;;;;;1.58;1.00;;;11.40;99.90;;;;;;5012337;28;20217;-72
2024/02/19 11:48:14;;;;;;;1.20;1.10;;;11.30;99.90;;;;;;5012214;28;20210;-72
2024/02/19 11:50:44;;;;;;;1.65;0.95;;;11.00;99.90;;;;;;5011738;28;20575;-72
2024/02/19 11:53:11;;;;;;;11.05;1.63;;;10.80;99.90;;;;;;5012384;28;20254;-72
2024/02/19 11:55:38;;;;;;;1.42;1.00;;;10.60;99.90;;;;;;5012280;28;20214;-72
2024/02/19 11:58:08;;;;;;;1.30;0.82;;;10.60;99.90;;;;;;5012180;28;20206;-72
2024/02/19 12:00:35;;;;;;;1.50;0.90;;;10.40;99.90;;;;;;5012206;28;20690;-73
2024/02/19 12:03:03;;;;;;;1.80;1.02;;;10.40;99.90;;;;;;5012739;28;20234;-73
2024/02/19 12:05:30;;;;;;;1.17;0.90;;;10.50;99.90;;;;;;5012476;28;20303;-73
2024/02/19 12:07:58;;;;;;;0.80;0.80;;;10.50;99.90;;;;;;5011781;28;20631;-73
2024/02/19 12:10:26;;;;;;;1.55;1.20;;;10.60;99.90;;;;;;5012403;28;20234;-72
2024/02/19 12:12:55;;;;;;;1.08;0.98;;;10.60;99.90;;;;;;5011847;28;20730;-73
2024/02/19 12:15:22;;;;;;;1.55;1.15;;;10.50;99.90;;;;;;5011949;28;20705;-72
2024/02/19 12:17:49;;;;;;;1.33;1.23;;;10.50;99.90;;;;;;5012617;28;20216;-70
2024/02/19 12:20:17;;;;;;;2.55;1.00;;;10.40;99.90;;;;;;5012629;28;20263;-72
2024/02/19 12:22:44;;;;;;;1.55;1.00;;;10.40;99.90;;;;;;5011625;28;20324;-72
2024/02/19 12:25:12;;;;;;;2.33;1.20;;;10.40;99.90;;;;;;5011714;28;20220;-72
2024/02/19 12:27:39;;;;;;;1.00;0.85;;;10.30;99.90;;;;;;5012139;28;20581;-72
2024/02/19 12:30:07;;;;;;;3.10;1.20;;;10.30;99.90;;;;;;5011880;28;20209;-72
2024/02/19 12:32:34;;;;;;;1.25;0.80;;;10.20;99.90;;;;;;5011476;28;20206;-72
2024/02/19 12:35:00;;;;;;;0.98;0.90;;;10.20;99.90;;;;;;5011782;28;20203;-72
2024/02/19 12:37:29;;;;;;;1.13;0.88;;;10.10;99.90;;;;;;5011833;28;20205;-72
2024/02/19 12:39:55;;;;;;;1.75;1.10;;;10.10;99.90;;;;;;5011477;28;20241;-72
2024/02/19 12:42:24;;;;;;;1.50;1.40;;;10.10;99.90;;;;;;5011517;28;20614;-72
2024/02/19 12:44:50;;;;;;;1.92;0.90;;;10.30;99.90;;;;;;5011416;28;20614;-72
2024/02/19 12:47:17;;;;;;;1.02;0.85;;;10.40;99.90;;;;;;5011643;28;20296;-72
2024/02/19 12:49:44;;;;;;;1.52;1.02;;;10.70;99.90;;;;;;5009139;28;20580;-72
2024/02/19 12:52:13;;;;;;;1.65;1.27;;;11.10;99.90;;;;;;5019251;28;20202;-73
2024/02/19 12:54:46;;;;;;;1.00;0.90;;;11.80;99.90;;;;;;5009977;28;20234;-72
2024/02/19 12:57:14;;;;;;;1.42;0.80;;;12.30;99.90;;;;;;5010970;28;20293;-73